createdAt,value
2019-05-18T00:00:54.796Z,3.87
2019-05-18T00:03:58.283Z,3.40
2019-05-18T00:07:01.787Z,3.90
2019-05-18T00:10:06.533Z,4.25
2019-05-18T00:13:10.013Z,3.37
2019-05-18T00:16:13.514Z,3.90
2019-05-18T00:19:17.033Z,4.12
2019-05-18T00:22:20.678Z,3.72
2019-05-18T00:25:24.220Z,3.95
2019-05-18T00:28:29.786Z,3.95
2019-05-18T00:31:33.277Z,3.83
2019-05-18T00:34:36.772Z,3.80
2019-05-18T00:37:40.272Z,3.67
2019-05-18T00:40:44.820Z,4.30
2019-05-18T00:43:49.376Z,4.08
2019-05-18T00:46:52.842Z,3.92
2019-05-18T00:49:57.349Z,4.15
2019-05-18T00:53:00.863Z,4.00
2019-05-18T00:56:05.650Z,3.17
2019-05-18T00:59:15.741Z,3.98
2019-05-18T01:02:15.449Z,3.90
2019-05-18T01:05:18.953Z,3.87
2019-05-18T01:08:22.464Z,3.58
2019-05-18T01:11:26.982Z,4.22
2019-05-18T01:14:31.518Z,4.05
2019-05-18T01:17:36.051Z,3.95
2019-05-18T01:20:39.518Z,3.87
2019-05-18T01:23:43.143Z,3.20
2019-05-18T01:26:46.732Z,3.62
2019-05-18T01:29:50.500Z,3.40
2019-05-18T01:32:53.916Z,3.30
2019-05-18T01:35:57.459Z,3.05
2019-05-18T01:39:00.946Z,3.55
2019-05-18T01:42:04.439Z,3.92
2019-05-18T01:45:16.306Z,3.60
2019-05-18T01:48:14.634Z,3.52
2019-05-18T01:51:18.418Z,4.25
2019-05-18T01:54:21.925Z,3.60
2019-05-18T01:57:25.446Z,3.70
2019-05-18T02:00:28.934Z,2.98
2019-05-18T02:03:33.591Z,3.10
2019-05-18T02:06:38.577Z,3.42
2019-05-18T02:09:42.455Z,3.40
2019-05-18T02:12:46.279Z,2.98
2019-05-18T02:15:49.739Z,3.00
2019-05-18T02:18:54.232Z,3.25
2019-05-18T02:21:57.748Z,3.00
2019-05-18T02:25:01.242Z,3.05
2019-05-18T02:28:06.450Z,3.50
2019-05-18T02:31:09.886Z,2.90
2019-05-18T02:34:13.396Z,3.27
2019-05-18T02:37:16.883Z,2.75
2019-05-18T02:40:20.423Z,3.08
2019-05-18T02:43:23.885Z,2.90
2019-05-18T02:46:27.393Z,2.80
2019-05-18T02:49:31.887Z,3.00
2019-05-18T02:52:35.405Z,3.00
2019-05-18T02:55:40.960Z,2.90
2019-05-18T02:58:44.490Z,3.05
2019-05-18T03:01:47.975Z,2.95
2019-05-18T03:04:51.511Z,2.67
2019-05-18T03:07:54.974Z,2.60
2019-05-18T03:10:58.458Z,3.17
2019-05-18T03:14:02.024Z,2.60
2019-05-18T03:17:05.487Z,2.90
2019-05-18T03:20:09.999Z,3.00
2019-05-18T03:23:13.502Z,2.95
2019-05-18T03:26:17.000Z,2.72
2019-05-18T03:29:21.517Z,2.83
2019-05-18T03:32:26.035Z,2.87
2019-05-18T03:35:29.554Z,2.80
2019-05-18T03:38:34.087Z,2.35
2019-05-18T03:41:37.563Z,2.70
2019-05-18T03:44:42.092Z,2.50
2019-05-18T03:47:45.591Z,2.60
2019-05-18T03:50:49.107Z,2.77
2019-05-18T03:53:52.599Z,2.60
2019-05-18T03:56:56.098Z,2.80
2019-05-18T03:59:59.592Z,3.00
2019-05-18T04:03:03.096Z,2.75
2019-05-18T04:06:06.594Z,2.83
2019-05-18T04:09:10.119Z,2.52
2019-05-18T04:12:13.605Z,2.87
2019-05-18T04:15:17.141Z,2.90
2019-05-18T04:18:20.615Z,2.50
2019-05-18T04:21:24.101Z,2.80
2019-05-18T04:24:27.596Z,2.58
2019-05-18T04:27:34.177Z,2.65
2019-05-18T04:30:37.675Z,2.40
2019-05-18T04:33:42.207Z,2.75
2019-05-18T04:36:45.697Z,2.60
2019-05-18T04:39:49.213Z,2.50
2019-05-18T04:42:53.724Z,2.52
2019-05-18T04:45:57.298Z,2.70
2019-05-18T04:49:01.755Z,2.50
2019-05-18T04:52:06.296Z,2.72
2019-05-18T04:55:09.777Z,2.30
2019-05-18T04:58:13.465Z,2.40
2019-05-18T05:01:16.998Z,2.42
2019-05-18T05:04:20.496Z,2.67
2019-05-18T05:07:25.016Z,2.15
2019-05-18T05:10:29.548Z,2.22
2019-05-18T05:13:34.062Z,2.35
2019-05-18T05:16:37.564Z,2.72
2019-05-18T05:19:41.086Z,2.12
2019-05-18T05:22:44.652Z,2.40
2019-05-18T05:25:48.266Z,2.25
2019-05-18T05:28:51.784Z,2.30
2019-05-18T05:31:55.593Z,2.30
2019-05-18T05:34:58.992Z,2.10
2019-05-18T05:38:02.491Z,2.35
2019-05-18T05:41:05.980Z,2.75
2019-05-18T05:44:09.482Z,2.70
2019-05-18T05:47:14.007Z,2.27
2019-05-18T05:50:17.502Z,2.50
2019-05-18T05:53:22.096Z,2.60
2019-05-18T05:56:25.549Z,2.42
2019-05-18T05:59:29.035Z,2.67
2019-05-18T06:02:33.551Z,2.25
2019-05-18T06:05:37.054Z,2.77
2019-05-18T06:08:40.566Z,2.70
2019-05-18T06:11:44.072Z,2.60
2019-05-18T06:14:48.597Z,2.30
2019-05-18T06:17:53.126Z,2.40
2019-05-18T06:20:56.612Z,2.10
2019-05-18T06:24:00.107Z,2.20
2019-05-18T06:27:03.609Z,2.20
2019-05-18T06:30:07.298Z,2.27
2019-05-18T06:33:10.979Z,2.33
2019-05-18T06:36:14.431Z,2.35
2019-05-18T06:39:18.060Z,2.20
2019-05-18T06:42:22.537Z,2.37
2019-05-18T06:45:26.379Z,2.10
2019-05-18T06:48:30.120Z,2.60
2019-05-18T06:51:33.671Z,2.42
2019-05-18T06:54:37.260Z,2.60
2019-05-18T06:57:41.688Z,2.65
2019-05-18T07:00:45.203Z,2.62
2019-05-18T07:03:48.702Z,2.58
2019-05-18T07:06:52.367Z,4.45
2019-05-18T07:09:55.886Z,8.20
2019-05-18T07:12:59.395Z,6.78
2019-05-18T07:16:03.690Z,7.78
2019-05-18T07:19:07.139Z,10.18
2019-05-18T07:22:10.737Z,9.23
2019-05-18T07:25:15.856Z,8.08
2019-05-18T07:28:19.485Z,8.20
2019-05-18T07:31:23.067Z,8.65
2019-05-18T07:34:26.956Z,8.30
2019-05-18T07:37:32.543Z,8.53
2019-05-18T07:40:36.028Z,6.45
2019-05-18T07:43:39.543Z,7.72
2019-05-18T07:46:43.043Z,8.85
2019-05-18T07:49:48.583Z,8.95
2019-05-18T07:52:52.184Z,8.90
2019-05-18T07:55:55.793Z,6.22
2019-05-18T07:58:59.377Z,6.85
2019-05-18T08:02:02.989Z,6.00
2019-05-18T08:05:06.588Z,5.33
2019-05-18T08:08:10.198Z,5.70
2019-05-18T08:11:13.711Z,6.17
2019-05-18T08:14:17.201Z,4.72
2019-05-18T08:17:20.713Z,5.65
2019-05-18T08:20:24.194Z,6.78
2019-05-18T08:23:27.703Z,7.28
2019-05-18T08:26:31.203Z,7.03
2019-05-18T08:29:35.727Z,3.98
2019-05-18T08:32:39.229Z,6.40
2019-05-18T08:35:42.750Z,4.85
2019-05-18T08:38:46.257Z,5.08
2019-05-18T08:41:50.756Z,4.40
2019-05-18T08:44:54.307Z,4.12
2019-05-18T08:47:57.762Z,4.60
2019-05-18T08:51:02.282Z,4.03
2019-05-18T08:54:06.807Z,3.58
2019-05-18T08:57:10.325Z,4.25
2019-05-18T09:00:13.812Z,3.92
2019-05-18T09:03:17.314Z,4.58
2019-05-18T09:06:20.812Z,6.42
2019-05-18T09:09:24.311Z,3.35
2019-05-18T09:12:32.368Z,4.00
2019-05-18T09:15:41.771Z,4.12
2019-05-18T09:18:46.439Z,3.47
2019-05-18T09:21:50.008Z,4.17
2019-05-18T09:24:53.517Z,3.35
2019-05-18T09:27:59.045Z,3.75
2019-05-18T09:31:02.557Z,3.17
2019-05-18T09:34:06.047Z,3.05
2019-05-18T09:37:09.517Z,3.27
2019-05-18T09:40:13.065Z,3.00
2019-05-18T09:43:16.543Z,3.17
2019-05-18T09:46:20.072Z,3.92
2019-05-18T09:49:23.544Z,3.10
2019-05-18T09:52:44.191Z,3.40
2019-05-18T09:55:33.415Z,5.25
2019-05-18T09:58:36.915Z,6.45
2019-05-18T10:01:40.426Z,6.17
2019-05-18T10:04:43.938Z,4.22
2019-05-18T10:07:47.418Z,5.67
2019-05-18T10:10:50.923Z,5.12
2019-05-18T10:13:54.426Z,5.60
2019-05-18T10:16:57.930Z,4.37
2019-05-18T10:20:01.446Z,4.85
2019-05-18T10:23:13.247Z,5.20
2019-05-18T10:26:10.285Z,4.40
2019-05-18T10:29:15.832Z,3.37
2019-05-18T10:32:20.365Z,3.92
2019-05-18T10:35:23.852Z,2.90
2019-05-18T10:38:27.351Z,3.12
2019-05-18T10:41:30.852Z,3.02
2019-05-18T10:44:34.364Z,4.37
2019-05-18T10:47:37.853Z,4.95
2019-05-18T10:50:41.347Z,3.08
2019-05-18T10:53:44.860Z,3.55
2019-05-18T10:56:48.370Z,2.92
2019-05-18T10:59:51.853Z,3.05
2019-05-18T11:02:55.368Z,3.12
2019-05-18T11:05:58.861Z,2.42
2019-05-18T11:09:04.457Z,4.47
2019-05-18T11:12:07.912Z,3.58
2019-05-18T11:15:13.111Z,3.62
2019-05-18T11:18:16.542Z,3.40
2019-05-18T11:21:20.055Z,3.10
2019-05-18T11:24:24.568Z,2.80
2019-05-18T11:27:28.207Z,2.72
2019-05-18T11:30:32.799Z,2.72
2019-05-18T11:33:36.310Z,4.28
2019-05-18T11:36:39.823Z,2.62
2019-05-18T11:39:44.320Z,4.08
2019-05-18T11:42:48.867Z,2.80
2019-05-18T11:45:52.405Z,3.27
2019-05-18T11:48:55.874Z,2.42
2019-05-18T11:51:59.356Z,2.87
2019-05-18T11:55:04.017Z,2.70
2019-05-18T11:58:10.459Z,3.22
2019-05-18T12:01:15.001Z,3.50
2019-05-18T12:04:20.538Z,3.20
2019-05-18T12:07:24.027Z,3.52
2019-05-18T12:10:27.579Z,2.85
2019-05-18T12:13:31.034Z,4.40
2019-05-18T12:16:34.530Z,4.25
2019-05-18T12:19:39.078Z,2.77
2019-05-18T12:22:42.597Z,3.55
2019-05-18T12:25:46.077Z,3.50
2019-05-18T12:28:50.599Z,4.42
2019-05-18T12:31:54.098Z,4.78
2019-05-18T12:34:57.603Z,3.08
2019-05-18T12:38:01.113Z,2.50
2019-05-18T12:41:05.615Z,2.62
2019-05-18T12:44:09.233Z,2.92
2019-05-18T12:47:14.471Z,2.85
2019-05-18T12:50:18.477Z,2.90
2019-05-18T12:53:22.092Z,2.83
2019-05-18T12:56:25.583Z,2.47
2019-05-18T12:59:29.114Z,3.08
2019-05-18T13:02:32.579Z,3.37
2019-05-18T13:05:37.121Z,4.33
2019-05-18T13:08:40.604Z,3.80
2019-05-18T13:11:44.256Z,2.52
2019-05-18T13:14:47.862Z,2.60
2019-05-18T13:17:52.516Z,3.25
2019-05-18T13:20:56.037Z,2.87
2019-05-18T13:23:59.572Z,3.62
2019-05-18T13:27:04.079Z,3.08
2019-05-18T13:30:07.591Z,2.70
2019-05-18T13:33:11.096Z,2.95
2019-05-18T13:36:14.600Z,2.90
2019-05-18T13:39:18.071Z,3.08
2019-05-18T13:42:21.573Z,3.27
2019-05-18T13:45:25.207Z,4.12
2019-05-18T13:48:28.792Z,3.12
2019-05-18T13:51:32.286Z,3.67
2019-05-18T13:54:35.797Z,3.22
2019-05-18T13:57:40.308Z,3.33
2019-05-18T14:00:44.003Z,3.45
2019-05-18T14:03:49.559Z,3.47
2019-05-18T14:06:53.249Z,3.20
2019-05-18T14:09:56.790Z,4.10
2019-05-18T14:13:00.290Z,3.42
2019-05-18T14:16:04.796Z,3.42
2019-05-18T14:19:09.365Z,3.37
2019-05-18T14:22:12.822Z,4.12
2019-05-18T14:25:19.726Z,3.70
2019-05-18T14:28:21.664Z,3.42
2019-05-18T14:31:25.304Z,3.87
2019-05-18T14:34:28.909Z,3.42
2019-05-18T14:37:32.372Z,3.35
2019-05-18T14:40:35.878Z,3.75
2019-05-18T14:43:41.438Z,3.65
2019-05-18T14:46:45.956Z,3.77
2019-05-18T14:49:49.482Z,4.35
2019-05-18T14:52:52.950Z,3.87
2019-05-18T14:55:57.504Z,4.05
2019-05-18T14:59:00.977Z,3.92
2019-05-18T15:02:04.491Z,4.30
2019-05-18T15:05:08.990Z,3.98
2019-05-18T15:08:13.537Z,3.70
2019-05-18T15:11:17.037Z,4.20
2019-05-18T15:14:20.539Z,4.00
2019-05-18T15:17:24.044Z,4.37
2019-05-18T15:20:27.565Z,4.75
2019-05-18T15:23:33.077Z,4.60
2019-05-18T15:26:36.601Z,4.28
2019-05-18T15:29:40.104Z,4.78
2019-05-18T15:32:43.583Z,4.70
2019-05-18T15:35:47.077Z,4.70
2019-05-18T15:38:50.589Z,3.65
2019-05-18T15:41:55.111Z,4.30
2019-05-18T15:44:58.668Z,4.47
2019-05-18T15:48:02.178Z,4.53
2019-05-18T15:51:06.635Z,4.37
2019-05-18T15:54:11.164Z,4.80
2019-05-18T15:57:14.829Z,4.05
2019-05-18T16:00:18.267Z,5.40
2019-05-18T16:03:21.874Z,5.37
2019-05-18T16:06:25.445Z,4.28
2019-05-18T16:09:28.888Z,5.40
2019-05-18T16:12:32.390Z,6.00
2019-05-18T16:15:35.892Z,4.72
2019-05-18T16:18:41.237Z,4.90
2019-05-18T16:21:44.738Z,4.83
2019-05-18T16:24:48.229Z,4.80
2019-05-18T16:27:51.733Z,4.70
2019-05-18T16:30:55.239Z,4.30
2019-05-18T16:33:58.725Z,4.50
2019-05-18T16:37:02.250Z,5.30
2019-05-18T16:40:05.811Z,5.05
2019-05-18T16:43:09.227Z,5.20
2019-05-18T16:46:12.742Z,5.28
2019-05-18T16:49:17.262Z,5.30
2019-05-18T16:52:20.752Z,4.95
2019-05-18T16:55:24.327Z,5.30
2019-05-18T16:58:27.758Z,6.53
2019-05-18T17:01:31.266Z,5.08
2019-05-18T17:04:35.781Z,5.35
2019-05-18T17:07:40.304Z,5.62
2019-05-18T17:10:43.831Z,5.65
2019-05-18T17:13:47.306Z,7.20
2019-05-18T17:16:50.812Z,5.72
2019-05-18T17:19:55.334Z,6.15
2019-05-18T17:22:59.860Z,5.55
2019-05-18T17:26:03.405Z,5.20
2019-05-18T17:29:06.881Z,5.58
2019-05-18T17:32:10.365Z,5.95
2019-05-18T17:35:14.887Z,5.62
2019-05-18T17:38:18.390Z,5.65
2019-05-18T17:41:21.900Z,5.03
2019-05-18T17:44:25.443Z,5.03
2019-05-18T17:47:29.619Z,5.40
2019-05-18T17:50:33.207Z,6.05
2019-05-18T17:53:36.720Z,6.53
2019-05-18T17:56:42.280Z,5.58
2019-05-18T17:59:45.774Z,5.70
2019-05-18T18:02:49.477Z,5.78
2019-05-18T18:05:52.968Z,5.60
2019-05-18T18:08:56.810Z,5.33
2019-05-18T18:12:01.216Z,6.42
2019-05-18T18:15:06.306Z,6.03
2019-05-18T18:18:10.908Z,5.60
2019-05-18T18:21:14.385Z,6.53
2019-05-18T18:24:17.875Z,5.67
2019-05-18T18:27:25.245Z,6.20
2019-05-18T18:30:27.751Z,6.25
2019-05-18T18:33:31.241Z,6.53
2019-05-18T18:36:34.751Z,8.03
2019-05-18T18:39:39.284Z,7.42
2019-05-18T18:42:42.674Z,6.83
2019-05-18T18:45:47.128Z,6.12
2019-05-18T18:48:50.621Z,6.10
2019-05-18T18:51:54.243Z,6.72
2019-05-18T18:54:57.792Z,6.10
2019-05-18T18:58:01.316Z,6.83
2019-05-18T19:01:04.926Z,7.50
2019-05-18T19:04:08.509Z,6.03
2019-05-18T19:07:12.013Z,5.42
2019-05-18T19:10:15.512Z,6.15
2019-05-18T19:13:19.018Z,6.28
2019-05-18T19:16:22.504Z,4.85
2019-05-18T19:19:29.022Z,5.60
2019-05-18T19:22:32.578Z,5.47
2019-05-18T19:25:37.120Z,7.65
2019-05-18T19:28:43.686Z,5.65
2019-05-18T19:31:48.197Z,5.65
2019-05-18T19:34:51.719Z,5.53
2019-05-18T19:37:55.327Z,5.62
2019-05-18T19:40:58.914Z,5.45
2019-05-18T19:44:04.482Z,5.22
2019-05-18T19:47:07.977Z,5.15
2019-05-18T19:50:12.490Z,5.67
2019-05-18T19:53:17.032Z,5.17
2019-05-18T19:56:20.513Z,5.12
2019-05-18T19:59:24.020Z,6.10
2019-05-18T20:02:27.531Z,5.03
2019-05-18T20:05:31.014Z,4.83
2019-05-18T20:08:34.586Z,7.08
2019-05-18T20:11:38.012Z,4.62
2019-05-18T20:14:42.543Z,4.72
2019-05-18T20:17:46.045Z,4.40
2019-05-18T20:20:49.584Z,4.40
2019-05-18T20:23:53.046Z,4.30
2019-05-18T20:26:56.548Z,5.08
2019-05-18T20:30:00.050Z,4.55
2019-05-18T20:33:03.587Z,4.30
2019-05-18T20:36:07.182Z,4.70
2019-05-18T20:39:10.853Z,4.70
2019-05-18T20:42:14.461Z,4.95
2019-05-18T20:45:18.009Z,4.37
2019-05-18T20:48:21.643Z,4.78
2019-05-18T20:51:25.172Z,4.62
2019-05-18T20:54:29.695Z,4.15
2019-05-18T20:57:33.211Z,3.90
2019-05-18T21:00:38.619Z,4.70
2019-05-18T21:03:43.478Z,4.80
2019-05-18T21:06:46.993Z,4.85
2019-05-18T21:09:50.479Z,3.95
2019-05-18T21:12:55.009Z,4.72
2019-05-18T21:15:58.531Z,5.12
2019-05-18T21:19:02.025Z,4.53
2019-05-18T21:22:05.687Z,4.33
2019-05-18T21:25:10.246Z,4.80
2019-05-18T21:28:13.737Z,4.17
2019-05-18T21:31:17.284Z,4.72
2019-05-18T21:34:21.759Z,3.90
2019-05-18T21:37:26.447Z,4.15
2019-05-18T21:40:29.992Z,4.08
2019-05-18T21:43:33.510Z,3.80
2019-05-18T21:46:39.103Z,3.83
2019-05-18T21:49:42.352Z,3.95
2019-05-18T21:52:46.851Z,4.15
2019-05-18T21:55:52.412Z,3.77
2019-05-18T21:59:09.054Z,4.25
2019-05-18T22:02:01.255Z,4.08
2019-05-18T22:05:05.025Z,4.00
2019-05-18T22:08:10.730Z,3.92
2019-05-18T22:11:14.233Z,4.72
2019-05-18T22:14:18.748Z,4.28
2019-05-18T22:17:22.236Z,3.80
2019-05-18T22:20:25.769Z,3.60
2019-05-18T22:23:31.297Z,4.05
2019-05-18T22:26:34.799Z,3.90
2019-05-18T22:29:38.330Z,4.08
2019-05-18T22:32:41.931Z,3.75
2019-05-18T22:35:45.503Z,4.12
2019-05-18T22:38:51.095Z,3.92
2019-05-18T22:41:54.572Z,3.90
2019-05-18T22:44:57.986Z,3.70
2019-05-18T22:48:01.552Z,3.62
2019-05-18T22:51:05.054Z,4.00
2019-05-18T22:54:08.570Z,3.50
2019-05-18T22:57:12.079Z,3.58
2019-05-18T23:00:15.611Z,3.80
2019-05-18T23:03:19.057Z,3.58
2019-05-18T23:06:22.563Z,3.80
2019-05-18T23:09:27.102Z,3.60
2019-05-18T23:12:32.630Z,3.98
2019-05-18T23:15:36.153Z,3.47
2019-05-18T23:18:39.657Z,3.20
2019-05-18T23:21:44.167Z,3.75
2019-05-18T23:24:48.763Z,3.37
2019-05-18T23:27:52.191Z,3.17
2019-05-18T23:30:55.742Z,3.70
2019-05-18T23:33:59.204Z,3.67
2019-05-18T23:37:02.773Z,3.65
2019-05-18T23:40:06.226Z,3.60
2019-05-18T23:43:10.733Z,3.42
2019-05-18T23:46:14.274Z,3.45
2019-05-18T23:49:17.734Z,3.67
2019-05-18T23:52:23.293Z,3.37
2019-05-18T23:55:28.846Z,3.77
2019-05-18T23:58:33.339Z,3.65
